createdAt,value
2023-05-23T05:01:13.302Z,25.00
2023-05-23T05:02:13.232Z,25.00
2023-05-23T05:03:13.291Z,25.00
2023-05-23T05:04:13.352Z,25.00
2023-05-23T05:05:13.331Z,25.00
2023-05-23T05:06:13.385Z,25.00
2023-05-23T05:07:13.381Z,0.00
2023-05-23T05:08:13.396Z,0.00
2023-05-23T05:09:13.468Z,0.00
2023-05-23T05:10:13.530Z,0.00
2023-05-23T05:11:13.622Z,0.00
2023-05-23T05:12:13.585Z,0.00
2023-05-23T05:13:13.627Z,0.00
2023-05-23T05:14:13.661Z,0.00
2023-05-23T05:15:13.730Z,0.00
2023-05-23T05:16:13.796Z,0.00
2023-05-23T05:17:13.815Z,0.00
2023-05-23T05:18:13.818Z,0.00
2023-05-23T05:19:13.832Z,0.00
2023-05-23T05:20:13.826Z,0.00
2023-05-23T05:21:13.787Z,0.00
2023-05-23T05:22:13.824Z,0.00
2023-05-23T05:23:13.826Z,0.00
2023-05-23T05:24:13.836Z,0.00
2023-05-23T05:25:13.841Z,22.16
2023-05-23T05:26:13.851Z,27.93
2023-05-23T05:27:13.850Z,25.00
2023-05-23T05:28:13.929Z,26.49
2023-05-23T05:29:13.882Z,26.28
2023-05-23T05:30:13.910Z,27.20
2023-05-23T05:31:13.958Z,25.00
2023-05-23T05:32:13.963Z,27.30
2023-05-23T05:33:14.040Z,21.65
2023-05-23T05:34:13.926Z,28.28
2023-05-23T05:35:14.020Z,29.47
2023-05-23T05:36:15.099Z,25.11
2023-05-23T05:37:15.025Z,31.72
2023-05-23T05:38:14.122Z,34.38
2023-05-23T05:39:15.215Z,36.77
2023-05-23T05:40:14.183Z,37.13
2023-05-23T05:41:14.178Z,43.61
2023-05-23T05:42:14.989Z,50.45
2023-05-23T05:43:14.188Z,50.47
2023-05-23T05:44:14.232Z,56.08
2023-05-23T05:45:14.260Z,45.93
2023-05-23T05:46:14.320Z,45.38
2023-05-23T05:47:14.348Z,49.93
2023-05-23T05:48:14.439Z,50.13
2023-05-23T05:49:14.636Z,48.12
2023-05-23T05:50:14.533Z,47.08
2023-05-23T05:51:14.491Z,46.57
2023-05-23T05:52:14.510Z,33.30
2023-05-23T05:53:14.613Z,28.07
2023-05-23T05:54:14.937Z,36.69
2023-05-23T05:55:14.670Z,48.78
2023-05-23T05:56:14.686Z,63.56
2023-05-23T05:57:15.012Z,55.04
2023-05-23T05:58:14.772Z,60.95
2023-05-23T05:59:14.831Z,52.17
2023-05-23T06:00:14.810Z,56.25
2023-05-23T06:01:14.801Z,58.10
2023-05-23T06:02:14.836Z,62.96
2023-05-23T06:03:15.200Z,59.07
2023-05-23T06:04:14.996Z,59.02
2023-05-23T06:05:14.906Z,62.85
2023-05-23T06:06:14.834Z,64.57
2023-05-23T06:07:14.888Z,78.15
2023-05-23T06:08:14.842Z,84.19
2023-05-23T06:09:14.939Z,75.19
2023-05-23T06:10:14.934Z,74.79
2023-05-23T06:11:15.016Z,78.33
2023-05-23T06:12:15.055Z,79.91
2023-05-23T06:13:15.088Z,87.00
2023-05-23T06:14:15.124Z,87.35
2023-05-23T06:15:15.165Z,89.91
2023-05-23T06:16:15.284Z,88.94
2023-05-23T06:17:17.006Z,88.10
2023-05-23T06:18:15.490Z,85.91
2023-05-23T06:19:15.257Z,85.87
2023-05-23T06:20:15.228Z,86.36
2023-05-23T06:21:15.352Z,89.90
2023-05-23T06:22:15.244Z,89.23
2023-05-23T06:23:15.218Z,85.09
2023-05-23T06:24:15.255Z,77.88
2023-05-23T06:25:15.276Z,86.45
2023-05-23T06:26:15.586Z,84.97
2023-05-23T06:27:15.377Z,78.80
2023-05-23T06:28:15.238Z,80.89
2023-05-23T06:29:15.343Z,85.77
2023-05-23T06:30:15.371Z,85.48
2023-05-23T06:31:15.367Z,86.19
2023-05-23T06:32:15.325Z,87.78
2023-05-23T06:33:15.262Z,71.38
2023-05-23T06:34:15.327Z,77.29
2023-05-23T06:35:15.360Z,76.59
2023-05-23T06:36:15.458Z,78.20
2023-05-23T06:37:15.561Z,83.27
2023-05-23T06:38:17.679Z,86.97
2023-05-23T06:39:15.886Z,69.29
2023-05-23T06:40:15.674Z,74.90
2023-05-23T06:41:15.822Z,68.95
2023-05-23T06:42:15.909Z,88.70
2023-05-23T06:43:15.830Z,83.94
2023-05-23T06:44:15.901Z,87.49
2023-05-23T06:45:16.767Z,76.93
2023-05-23T06:46:16.207Z,84.74
2023-05-23T06:47:16.048Z,86.28
2023-05-23T06:48:17.020Z,81.10
2023-05-23T06:49:16.251Z,81.31
2023-05-23T06:50:16.257Z,87.23
2023-05-23T06:51:16.313Z,83.38
2023-05-23T06:52:16.339Z,81.64
2023-05-23T06:53:18.806Z,73.42
2023-05-23T06:54:16.397Z,81.28
2023-05-23T06:55:17.078Z,84.31
2023-05-23T06:56:16.376Z,88.33
2023-05-23T06:57:16.484Z,85.21
2023-05-23T06:58:16.460Z,83.09
2023-05-23T06:59:16.437Z,85.40
2023-05-23T07:00:16.335Z,86.87
2023-05-23T07:01:16.371Z,85.59
2023-05-23T07:02:16.377Z,85.05
2023-05-23T07:03:17.102Z,83.89
2023-05-23T07:04:16.429Z,83.66
2023-05-23T07:05:16.459Z,87.34
2023-05-23T07:06:16.327Z,89.06
2023-05-23T07:07:16.444Z,87.97
2023-05-23T07:08:16.278Z,88.23
2023-05-23T07:09:16.411Z,89.83
2023-05-23T07:10:16.715Z,89.30
2023-05-23T07:11:16.324Z,87.48
2023-05-23T07:12:16.278Z,88.41
2023-05-23T07:13:16.397Z,91.60
2023-05-23T07:14:16.285Z,91.80
2023-05-23T07:15:16.288Z,90.97
2023-05-23T07:16:16.253Z,85.94
2023-05-23T07:17:16.370Z,90.47
2023-05-23T07:18:16.514Z,89.17
2023-05-23T07:19:16.369Z,87.12
2023-05-23T07:20:16.259Z,85.34
2023-05-23T07:21:16.241Z,86.69
2023-05-23T07:22:16.171Z,86.95
2023-05-23T07:23:16.211Z,81.22
2023-05-23T07:24:16.189Z,89.70
2023-05-23T07:25:16.276Z,85.13
2023-05-23T07:26:16.172Z,83.60
2023-05-23T07:27:16.180Z,83.00
2023-05-23T07:28:16.227Z,81.64
2023-05-23T07:29:16.146Z,86.80
2023-05-23T07:30:16.153Z,84.68
2023-05-23T07:31:16.638Z,82.69
2023-05-23T07:32:17.067Z,83.04
2023-05-23T07:33:16.257Z,82.79
2023-05-23T07:34:16.122Z,82.49
2023-05-23T07:35:16.128Z,83.18
2023-05-23T07:36:16.151Z,84.87
2023-05-23T07:37:16.207Z,81.67
2023-05-23T07:38:16.294Z,83.04
2023-05-23T07:39:16.317Z,82.09
2023-05-23T07:40:16.397Z,86.60
2023-05-23T07:41:16.412Z,76.58
2023-05-23T07:42:16.471Z,85.84
2023-05-23T07:43:16.546Z,89.86
2023-05-23T07:44:16.602Z,81.43
2023-05-23T07:45:16.669Z,73.68
2023-05-23T07:46:16.800Z,78.25
2023-05-23T07:47:16.765Z,79.15
2023-05-23T07:48:16.847Z,75.93
2023-05-23T07:49:16.885Z,78.48
2023-05-23T07:50:16.926Z,79.07
2023-05-23T07:51:16.956Z,78.35
2023-05-23T07:52:17.024Z,79.45
2023-05-23T07:53:17.087Z,76.89
2023-05-23T07:54:17.142Z,85.31
2023-05-23T07:55:17.182Z,88.93
2023-05-23T07:56:17.194Z,90.46
2023-05-23T07:57:17.240Z,87.54
2023-05-23T07:58:17.291Z,89.86
2023-05-23T07:59:17.336Z,91.42
2023-05-23T08:00:17.368Z,89.15
2023-05-23T08:01:17.409Z,90.74
2023-05-23T08:02:17.518Z,96.72
2023-05-23T08:03:17.580Z,91.20
2023-05-23T08:04:17.512Z,93.98
2023-05-23T08:05:17.561Z,92.37
2023-05-23T08:06:17.564Z,93.21
2023-05-23T08:07:19.317Z,95.90
2023-05-23T08:08:17.571Z,94.46
2023-05-23T08:09:17.604Z,99.80
2023-05-23T08:10:17.625Z,94.50
2023-05-23T08:11:17.627Z,90.05
2023-05-23T08:12:17.703Z,93.95
2023-05-23T08:13:17.727Z,95.44
2023-05-23T08:14:17.714Z,94.03
2023-05-23T08:15:17.762Z,91.43
2023-05-23T08:16:17.745Z,87.52
2023-05-23T08:17:17.835Z,88.05
2023-05-23T08:18:17.866Z,89.92
2023-05-23T08:19:18.736Z,88.80
2023-05-23T08:20:18.653Z,87.45
2023-05-23T08:21:17.822Z,89.53
2023-05-23T08:22:17.848Z,88.43
2023-05-23T08:23:17.919Z,86.65
2023-05-23T08:24:17.888Z,87.55
2023-05-23T08:25:17.906Z,85.31
2023-05-23T08:26:17.942Z,88.22
2023-05-23T08:27:18.111Z,91.03
2023-05-23T08:28:17.988Z,89.96
2023-05-23T08:29:18.024Z,91.64
2023-05-23T08:30:18.610Z,95.28
2023-05-23T08:31:18.123Z,96.98
2023-05-23T08:32:18.168Z,94.46
2023-05-23T08:33:18.083Z,103.68
2023-05-23T08:34:18.084Z,97.78
2023-05-23T08:35:18.151Z,97.28
2023-05-23T08:36:18.122Z,97.10
2023-05-23T08:37:18.108Z,98.31
2023-05-23T08:38:18.254Z,99.11
2023-05-23T08:39:18.154Z,101.11
2023-05-23T08:40:18.129Z,101.51
2023-05-23T08:41:18.152Z,97.59
2023-05-23T08:42:18.163Z,102.54
2023-05-23T08:43:18.152Z,106.02
2023-05-23T08:44:18.153Z,107.38
2023-05-23T08:45:18.150Z,103.15
2023-05-23T08:46:18.226Z,102.71
2023-05-23T08:47:18.156Z,103.95
2023-05-23T08:48:18.168Z,105.58
2023-05-23T08:49:18.281Z,106.10
2023-05-23T08:50:21.159Z,107.36
2023-05-23T08:51:18.598Z,107.59
2023-05-23T08:52:18.204Z,108.43
2023-05-23T08:53:18.373Z,108.43
2023-05-23T08:54:18.275Z,111.53
2023-05-23T08:55:18.236Z,115.66
2023-05-23T08:56:18.207Z,110.29
2023-05-23T08:57:18.212Z,112.41
2023-05-23T08:58:18.141Z,112.53
2023-05-23T08:59:18.145Z,124.36
2023-05-23T09:00:18.115Z,120.91
2023-05-23T09:01:18.264Z,127.89
2023-05-23T09:02:18.173Z,125.78
2023-05-23T09:03:18.251Z,118.57
2023-05-23T09:04:18.277Z,119.15
2023-05-23T09:05:18.336Z,119.11
2023-05-23T09:06:18.407Z,118.77
2023-05-23T09:07:18.434Z,119.51
2023-05-23T09:08:18.587Z,118.91
2023-05-23T09:09:18.572Z,120.28
2023-05-23T09:10:18.730Z,119.57
2023-05-23T09:11:18.645Z,122.61
2023-05-23T09:12:18.802Z,121.99
2023-05-23T09:13:18.710Z,122.22
2023-05-23T09:14:18.758Z,121.63
2023-05-23T09:15:18.776Z,123.82
2023-05-23T09:16:18.850Z,125.99
2023-05-23T09:17:18.746Z,126.15
2023-05-23T09:18:18.667Z,127.34
2023-05-23T09:19:18.760Z,125.51
2023-05-23T09:20:18.690Z,126.20
2023-05-23T09:21:18.673Z,123.86
2023-05-23T09:22:18.723Z,121.67
2023-05-23T09:23:19.215Z,115.16
2023-05-23T09:24:18.827Z,115.64
2023-05-23T09:25:18.882Z,116.79
2023-05-23T09:26:18.906Z,120.99
2023-05-23T09:27:19.092Z,118.32
2023-05-23T09:28:19.144Z,112.20
2023-05-23T09:29:19.122Z,113.16
2023-05-23T09:30:19.291Z,111.73
2023-05-23T09:31:19.255Z,113.21
2023-05-23T09:32:20.044Z,110.94
2023-05-23T09:33:19.364Z,89.84
2023-05-23T09:34:19.400Z,63.94
2023-05-23T09:35:19.394Z,57.81
2023-05-23T09:36:19.460Z,54.29
2023-05-23T09:37:19.667Z,40.08
2023-05-23T09:38:19.489Z,45.50
2023-05-23T09:39:20.129Z,41.52
2023-05-23T09:40:20.157Z,30.86
2023-05-23T09:41:19.494Z,25.00
2023-05-23T09:42:24.138Z,23.52
2023-05-23T09:43:19.457Z,0.94
2023-05-23T09:44:19.455Z,5.67
2023-05-23T09:45:19.460Z,9.62
2023-05-23T09:46:19.513Z,1.15
2023-05-23T09:47:19.567Z,12.16
2023-05-23T09:48:19.418Z,26.00
2023-05-23T09:49:19.401Z,38.16
2023-05-23T09:50:19.500Z,42.23
2023-05-23T09:51:19.383Z,33.27
2023-05-23T09:52:19.427Z,26.07
2023-05-23T09:53:19.412Z,41.71
2023-05-23T09:54:19.395Z,49.74
2023-05-23T09:55:19.376Z,45.61
2023-05-23T09:56:19.390Z,28.69
2023-05-23T09:57:19.417Z,35.62
2023-05-23T09:58:19.435Z,34.52
2023-05-23T09:59:19.605Z,54.79
2023-05-23T10:00:19.441Z,69.97
2023-05-23T10:01:19.561Z,79.14
2023-05-23T10:02:19.524Z,75.45
2023-05-23T10:03:19.539Z,83.22
2023-05-23T10:04:19.633Z,85.52
2023-05-23T10:05:19.573Z,85.74
2023-05-23T10:06:20.128Z,93.20
2023-05-23T10:07:19.654Z,97.24
2023-05-23T10:08:19.693Z,88.34
2023-05-23T10:09:19.794Z,78.37
2023-05-23T10:10:19.722Z,80.47
2023-05-23T10:11:19.751Z,64.09
2023-05-23T10:12:19.822Z,78.04
2023-05-23T10:13:19.856Z,87.78
2023-05-23T10:14:19.847Z,81.43
2023-05-23T10:15:19.880Z,84.58
2023-05-23T10:16:19.945Z,41.52
2023-05-23T10:17:20.107Z,52.87
2023-05-23T10:18:22.673Z,72.83
2023-05-23T10:19:20.140Z,54.80
2023-05-23T10:20:19.975Z,61.62
2023-05-23T10:21:19.967Z,69.40
2023-05-23T10:22:19.959Z,64.25
2023-05-23T10:23:20.176Z,75.00
2023-05-23T10:24:19.928Z,89.52
2023-05-23T10:25:19.881Z,60.53
2023-05-23T10:26:19.897Z,63.91
2023-05-23T10:27:19.937Z,45.50
2023-05-23T10:28:19.856Z,28.42
2023-05-23T10:29:19.988Z,24.75
2023-05-23T10:30:19.876Z,23.22
2023-05-23T10:31:19.925Z,30.91
2023-05-23T10:32:19.878Z,45.13
2023-05-23T10:33:19.842Z,46.50
2023-05-23T10:34:19.843Z,37.00
2023-05-23T10:35:19.835Z,50.20
2023-05-23T10:36:19.823Z,29.83
2023-05-23T10:37:19.822Z,0.00
2023-05-23T10:38:19.839Z,0.00
2023-05-23T10:39:19.855Z,0.00
2023-05-23T10:40:19.786Z,25.67
2023-05-23T10:41:19.785Z,25.05
2023-05-23T10:42:19.814Z,33.14
2023-05-23T10:43:19.805Z,74.53
2023-05-23T10:44:19.764Z,88.97
2023-05-23T10:45:19.769Z,113.46
2023-05-23T10:46:19.858Z,120.16
2023-05-23T10:47:19.790Z,132.61
2023-05-23T10:48:22.636Z,134.40
2023-05-23T10:49:19.739Z,145.36
2023-05-23T10:50:19.724Z,156.03
2023-05-23T10:51:19.729Z,160.35
2023-05-23T10:52:19.727Z,166.41
2023-05-23T10:53:19.710Z,178.08
2023-05-23T10:54:19.737Z,189.76
2023-05-23T10:55:19.672Z,193.21
2023-05-23T10:56:19.746Z,200.74
2023-05-23T10:57:19.736Z,210.17
2023-05-23T10:58:19.657Z,214.91
2023-05-23T10:59:19.633Z,220.06
2023-05-23T11:00:20.197Z,221.23
2023-05-23T11:01:19.716Z,224.54
2023-05-23T11:02:19.757Z,226.43
2023-05-23T11:03:20.710Z,224.97
2023-05-23T11:04:19.688Z,228.85
2023-05-23T11:05:19.605Z,229.21
2023-05-23T11:06:19.619Z,185.92
2023-05-23T11:07:19.588Z,212.14
2023-05-23T11:08:19.621Z,216.39
2023-05-23T11:09:19.714Z,210.50
2023-05-23T11:10:19.571Z,212.50
2023-05-23T11:11:19.562Z,212.15
2023-05-23T11:12:19.704Z,212.58
2023-05-23T11:13:19.636Z,214.34
2023-05-23T11:14:19.884Z,214.52
2023-05-23T11:15:19.535Z,151.13
2023-05-23T11:16:19.568Z,178.61
2023-05-23T11:17:19.537Z,208.78
2023-05-23T11:18:19.517Z,206.99
2023-05-23T11:19:19.733Z,215.31
2023-05-23T11:20:19.503Z,202.82
2023-05-23T11:21:19.462Z,197.28
2023-05-23T11:22:19.489Z,209.81
2023-05-23T11:23:19.473Z,210.74
2023-05-23T11:24:19.488Z,207.49
2023-05-23T11:25:19.524Z,203.85
2023-05-23T11:26:19.465Z,195.95
2023-05-23T11:27:19.444Z,206.52
2023-05-23T11:28:19.418Z,214.38
2023-05-23T11:29:19.470Z,213.86
2023-05-23T11:30:19.466Z,219.06
2023-05-23T11:31:19.447Z,220.00
2023-05-23T11:32:19.566Z,204.11
2023-05-23T11:33:19.389Z,166.46
2023-05-23T11:34:19.403Z,197.20
2023-05-23T11:35:19.372Z,205.89
2023-05-23T11:36:19.397Z,210.59
2023-05-23T11:37:19.407Z,221.40
2023-05-23T11:38:19.395Z,229.66
2023-05-23T11:39:19.407Z,212.93
2023-05-23T11:40:19.364Z,220.89
2023-05-23T11:41:19.374Z,221.80
2023-05-23T11:42:19.376Z,217.29
2023-05-23T11:43:19.350Z,216.08
2023-05-23T11:44:19.328Z,225.22
2023-05-23T11:45:20.183Z,225.45
2023-05-23T11:46:19.445Z,226.23
2023-05-23T11:47:19.352Z,224.35
2023-05-23T11:48:19.308Z,229.95
2023-05-23T11:49:19.268Z,235.88
2023-05-23T11:50:19.268Z,235.63
2023-05-23T11:51:19.287Z,244.78
2023-05-23T11:52:19.275Z,240.06
2023-05-23T11:53:19.289Z,244.66
2023-05-23T11:54:19.270Z,248.58
2023-05-23T11:55:19.262Z,247.82
2023-05-23T11:56:19.247Z,245.97
2023-05-23T11:57:19.232Z,246.46
2023-05-23T11:58:19.236Z,241.99
2023-05-23T11:59:19.243Z,239.93
2023-05-23T12:00:19.214Z,231.36
2023-05-23T12:01:19.211Z,216.87
2023-05-23T12:02:19.233Z,212.81
2023-05-23T12:03:19.491Z,214.87
2023-05-23T12:04:19.280Z,224.66
2023-05-23T12:05:19.173Z,222.45
2023-05-23T12:06:19.149Z,206.87
2023-05-23T12:07:19.216Z,174.84
2023-05-23T12:08:19.156Z,133.31
2023-05-23T12:09:19.137Z,121.12
2023-05-23T12:10:19.151Z,126.35
2023-05-23T12:11:19.185Z,137.76
2023-05-23T12:12:19.115Z,131.32
2023-05-23T12:13:19.161Z,123.92
2023-05-23T12:14:19.136Z,123.04
2023-05-23T12:15:19.100Z,126.14
2023-05-23T12:16:19.112Z,111.47
2023-05-23T12:17:19.146Z,98.72
2023-05-23T12:18:19.160Z,117.67
2023-05-23T12:19:19.122Z,98.58
2023-05-23T12:20:19.093Z,74.79
2023-05-23T12:21:19.745Z,60.69
2023-05-23T12:22:19.073Z,52.21
2023-05-23T12:23:19.046Z,48.77
2023-05-23T12:24:19.050Z,27.53
2023-05-23T12:25:19.088Z,30.55
2023-05-23T12:26:19.010Z,25.16
2023-05-23T12:27:19.046Z,51.78
2023-05-23T12:28:19.011Z,45.37
2023-05-23T12:29:19.036Z,32.32
2023-05-23T12:30:19.022Z,28.83
2023-05-23T12:31:19.157Z,27.81
2023-05-23T12:32:18.982Z,32.77
2023-05-23T12:33:19.004Z,28.55
2023-05-23T12:34:18.978Z,38.00
2023-05-23T12:35:18.964Z,40.50
2023-05-23T12:36:18.948Z,12.62
2023-05-23T12:37:20.507Z,32.33
2023-05-23T12:38:18.962Z,50.88
2023-05-23T12:39:18.968Z,40.62
2023-05-23T12:40:19.001Z,29.68
2023-05-23T12:41:19.019Z,29.46
2023-05-23T12:42:19.058Z,49.35
2023-05-23T12:43:19.118Z,38.61
2023-05-23T12:44:19.136Z,38.90
2023-05-23T12:45:19.146Z,49.15
2023-05-23T12:46:19.182Z,36.46
2023-05-23T12:47:19.216Z,44.98
2023-05-23T12:48:19.313Z,45.48
2023-05-23T12:49:19.211Z,45.89
2023-05-23T12:50:20.211Z,65.22
2023-05-23T12:51:19.283Z,57.10
2023-05-23T12:52:19.259Z,66.90
2023-05-23T12:53:19.283Z,76.53
2023-05-23T12:54:19.300Z,86.48
2023-05-23T12:55:19.308Z,93.41
2023-05-23T12:56:19.315Z,92.51
2023-05-23T12:57:19.327Z,91.98
2023-05-23T12:58:19.309Z,96.63
2023-05-23T12:59:19.313Z,98.57
2023-05-23T13:00:19.349Z,111.75
2023-05-23T13:01:19.378Z,132.75
2023-05-23T13:02:19.387Z,123.16
2023-05-23T13:03:19.416Z,129.96
2023-05-23T13:04:19.539Z,117.37
2023-05-23T13:05:19.355Z,127.92
2023-05-23T13:06:19.393Z,129.39
2023-05-23T13:07:19.408Z,130.93
2023-05-23T13:08:19.392Z,137.00
2023-05-23T13:09:19.423Z,142.61
2023-05-23T13:10:19.426Z,141.78
2023-05-23T13:11:19.462Z,141.30
2023-05-23T13:12:19.439Z,143.14
2023-05-23T13:13:19.450Z,144.30
2023-05-23T13:14:19.492Z,147.34
2023-05-23T13:15:19.472Z,150.43
2023-05-23T13:16:19.515Z,159.60
2023-05-23T13:17:19.464Z,159.27
2023-05-23T13:18:19.570Z,162.28
2023-05-23T13:19:19.558Z,151.44
2023-05-23T13:20:19.506Z,152.74
2023-05-23T13:21:19.539Z,165.06
2023-05-23T13:22:19.499Z,156.70
2023-05-23T13:23:19.509Z,149.99
2023-05-23T13:24:19.541Z,153.18
2023-05-23T13:25:19.530Z,165.48
2023-05-23T13:26:19.539Z,166.64
2023-05-23T13:27:19.563Z,168.63
2023-05-23T13:28:19.573Z,161.59
2023-05-23T13:29:19.553Z,168.80
2023-05-23T13:30:19.563Z,171.63
2023-05-23T13:31:19.634Z,168.76
2023-05-23T13:32:19.606Z,171.34
2023-05-23T13:33:19.659Z,170.78
2023-05-23T13:34:19.621Z,168.72
2023-05-23T13:35:19.589Z,174.59
2023-05-23T13:36:19.588Z,185.48
2023-05-23T13:37:19.629Z,187.18
2023-05-23T13:38:19.622Z,154.56
2023-05-23T13:39:19.982Z,167.78
2023-05-23T13:40:19.610Z,181.13
2023-05-23T13:41:19.609Z,174.99
2023-05-23T13:42:19.594Z,178.20
2023-05-23T13:43:19.614Z,174.93
2023-05-23T13:44:19.625Z,166.46
2023-05-23T13:45:19.648Z,166.03
2023-05-23T13:46:19.680Z,162.50
2023-05-23T13:47:19.647Z,158.69
2023-05-23T13:48:19.668Z,149.35
2023-05-23T13:49:19.627Z,154.00
2023-05-23T13:50:19.704Z,144.19
2023-05-23T13:51:19.620Z,153.73
2023-05-23T13:52:19.647Z,156.19
2023-05-23T13:53:19.693Z,153.28
2023-05-23T13:54:19.669Z,143.32
2023-05-23T13:55:19.694Z,154.30
2023-05-23T13:56:19.669Z,161.88
2023-05-23T13:57:19.718Z,166.90
2023-05-23T13:58:19.696Z,150.13
2023-05-23T13:59:19.707Z,152.57
2023-05-23T14:00:19.711Z,148.34
2023-05-23T14:01:19.789Z,145.58
2023-05-23T14:02:19.743Z,148.38
2023-05-23T14:03:19.703Z,175.05
2023-05-23T14:04:19.755Z,186.66
2023-05-23T14:05:19.790Z,196.38
2023-05-23T14:06:19.769Z,198.11
2023-05-23T14:07:19.756Z,199.40
2023-05-23T14:08:19.728Z,198.19
2023-05-23T14:09:22.213Z,204.83
2023-05-23T14:10:19.731Z,206.82
2023-05-23T14:11:19.738Z,210.95
2023-05-23T14:12:19.776Z,210.98
2023-05-23T14:13:19.726Z,212.64
2023-05-23T14:14:19.698Z,214.90
2023-05-23T14:15:19.732Z,217.34
2023-05-23T14:16:19.740Z,217.52
2023-05-23T14:17:19.713Z,217.92
2023-05-23T14:18:19.698Z,220.21
2023-05-23T14:19:19.748Z,224.40
2023-05-23T14:20:19.674Z,225.10
2023-05-23T14:21:19.657Z,225.31
2023-05-23T14:22:19.716Z,230.28
2023-05-23T14:23:19.649Z,231.25
2023-05-23T14:24:19.642Z,234.20
2023-05-23T14:25:19.619Z,236.23
2023-05-23T14:26:19.612Z,236.87
2023-05-23T14:27:19.615Z,238.49
2023-05-23T14:28:19.612Z,238.79
2023-05-23T14:29:19.660Z,241.11
2023-05-23T14:30:19.627Z,244.12
2023-05-23T14:31:19.636Z,243.68
2023-05-23T14:32:19.715Z,249.26
2023-05-23T14:33:19.585Z,248.92
2023-05-23T14:34:19.542Z,249.76
2023-05-23T14:35:19.545Z,248.24
2023-05-23T14:36:19.537Z,247.23
2023-05-23T14:37:19.549Z,248.35
2023-05-23T14:38:19.536Z,249.35
2023-05-23T14:39:19.582Z,248.40
2023-05-23T14:40:19.540Z,249.15
2023-05-23T14:41:19.531Z,248.91
2023-05-23T14:42:19.520Z,248.65
2023-05-23T14:43:19.527Z,248.94
2023-05-23T14:44:19.544Z,247.97
2023-05-23T14:45:19.513Z,247.33
2023-05-23T14:46:19.531Z,248.14
2023-05-23T14:47:19.477Z,259.21
2023-05-23T14:48:19.483Z,250.00
2023-05-23T14:49:19.458Z,244.67
2023-05-23T14:50:19.469Z,239.09
2023-05-23T14:51:31.073Z,232.68
2023-05-23T14:52:20.454Z,232.82
2023-05-23T14:53:19.432Z,232.84
2023-05-23T14:54:19.468Z,235.65
2023-05-23T14:55:19.452Z,239.06
2023-05-23T14:56:19.444Z,244.31
2023-05-23T14:57:19.470Z,243.74
2023-05-23T14:58:19.415Z,242.03
2023-05-23T14:59:19.429Z,247.23
2023-05-23T15:00:19.389Z,248.21
2023-05-23T15:01:19.464Z,249.16
2023-05-23T15:02:19.497Z,248.05
2023-05-23T15:03:19.726Z,247.11
2023-05-23T15:04:19.708Z,248.05
2023-05-23T15:05:19.706Z,248.61
2023-05-23T15:06:19.812Z,248.91
2023-05-23T15:07:19.854Z,247.21
2023-05-23T15:08:20.233Z,249.03
2023-05-23T15:09:20.038Z,247.26
2023-05-23T15:10:20.004Z,247.23
2023-05-23T15:11:20.096Z,247.92
2023-05-23T15:12:20.738Z,249.46
2023-05-23T15:13:20.165Z,248.62
2023-05-23T15:14:20.215Z,247.59
2023-05-23T15:15:20.324Z,247.56
2023-05-23T15:16:20.383Z,245.75
2023-05-23T15:17:20.414Z,248.16
2023-05-23T15:18:35.732Z,246.28
2023-05-23T15:19:21.525Z,246.40
2023-05-23T15:20:20.495Z,243.96
2023-05-23T15:21:20.453Z,238.55
2023-05-23T15:22:36.461Z,237.44
2023-05-23T15:23:21.552Z,241.71
2023-05-23T15:24:20.438Z,237.10
2023-05-23T15:25:29.745Z,236.78
2023-05-23T15:26:21.410Z,242.92
2023-05-23T15:27:21.093Z,236.20
2023-05-23T15:28:20.433Z,238.83
2023-05-23T15:29:20.524Z,236.75
2023-05-23T15:30:20.387Z,236.26
2023-05-23T15:31:20.430Z,237.05
2023-05-23T15:32:20.487Z,238.27
2023-05-23T15:33:20.407Z,238.38
2023-05-23T15:34:20.374Z,237.72
2023-05-23T15:35:20.399Z,239.72
2023-05-23T15:36:20.445Z,237.69
2023-05-23T15:37:20.494Z,236.89
2023-05-23T15:38:20.514Z,240.14
2023-05-23T15:39:20.615Z,239.31
2023-05-23T15:40:20.623Z,240.61
2023-05-23T15:41:20.752Z,239.65
2023-05-23T15:42:20.749Z,240.17
2023-05-23T15:43:20.815Z,240.32
2023-05-23T15:44:20.957Z,239.51
2023-05-23T15:45:20.929Z,238.89
2023-05-23T15:46:21.015Z,240.21
2023-05-23T15:47:20.983Z,240.04
2023-05-23T15:48:21.121Z,238.60
2023-05-23T15:49:26.678Z,239.10
2023-05-23T15:50:22.113Z,239.25
2023-05-23T15:51:21.317Z,239.17
2023-05-23T15:52:21.081Z,239.53
2023-05-23T15:53:21.107Z,240.50
2023-05-23T15:54:21.069Z,239.69
2023-05-23T15:55:21.087Z,240.31
2023-05-23T15:56:21.085Z,240.33
2023-05-23T15:57:21.163Z,239.23
2023-05-23T15:58:21.064Z,238.69
2023-05-23T15:59:21.108Z,239.90
2023-05-23T16:00:21.164Z,238.28
2023-05-23T16:01:21.283Z,239.61
2023-05-23T16:02:21.273Z,238.85
2023-05-23T16:03:21.533Z,237.70
2023-05-23T16:04:21.504Z,239.26
2023-05-23T16:05:21.441Z,240.21
2023-05-23T16:06:21.515Z,238.86
2023-05-23T16:07:21.571Z,238.40
2023-05-23T16:08:21.600Z,238.33
2023-05-23T16:09:21.762Z,238.73
2023-05-23T16:10:21.762Z,238.82
2023-05-23T16:11:21.806Z,239.35
2023-05-23T16:12:21.898Z,239.79
2023-05-23T16:13:21.924Z,239.89
2023-05-23T16:14:21.954Z,239.96
2023-05-23T16:15:22.034Z,240.06
2023-05-23T16:16:22.180Z,239.17
2023-05-23T16:17:22.182Z,237.60
2023-05-23T16:18:24.001Z,237.68
2023-05-23T16:19:22.345Z,239.14
2023-05-23T16:20:22.327Z,237.51
2023-05-23T16:21:22.381Z,240.18
2023-05-23T16:22:22.475Z,239.45
2023-05-23T16:23:22.510Z,238.98
2023-05-23T16:24:22.594Z,240.37
2023-05-23T16:25:22.608Z,238.49
2023-05-23T16:26:22.721Z,239.13
2023-05-23T16:27:22.749Z,239.52
2023-05-23T16:28:22.821Z,237.70
2023-05-23T16:29:22.873Z,238.10
2023-05-23T16:31:23.001Z,237.72
2023-05-23T16:32:23.063Z,237.12
2023-05-23T16:33:23.109Z,239.53
2023-05-23T16:34:23.132Z,237.05
2023-05-23T16:35:23.201Z,238.39
2023-05-23T16:36:23.284Z,236.49
2023-05-23T16:37:23.329Z,238.83
2023-05-23T16:38:23.399Z,239.08
2023-05-23T16:39:23.432Z,238.74
2023-05-23T16:40:23.496Z,237.70
2023-05-23T16:41:23.556Z,236.64
2023-05-23T16:42:23.600Z,236.86
2023-05-23T16:43:23.640Z,238.02
2023-05-23T16:44:23.810Z,238.09
2023-05-23T16:45:23.783Z,237.42
2023-05-23T16:46:23.874Z,237.14
2023-05-23T16:47:23.894Z,237.07
2023-05-23T16:48:23.986Z,237.74
2023-05-23T16:49:23.999Z,235.92
2023-05-23T16:50:24.071Z,235.07
2023-05-23T16:51:24.099Z,238.02
2023-05-23T16:52:24.171Z,237.00
2023-05-23T16:53:24.231Z,236.75
2023-05-23T16:54:24.297Z,235.53
2023-05-23T16:55:24.359Z,235.74
2023-05-23T16:56:24.412Z,237.03
2023-05-23T16:57:24.498Z,237.64
2023-05-23T16:58:24.502Z,235.13
2023-05-23T16:59:24.548Z,235.89
2023-05-23T17:00:32.094Z,235.16
